createdAt,value
2018-07-20T00:01:28.167Z,7.77
2018-07-20T00:03:55.774Z,7.00
2018-07-20T00:06:23.317Z,7.30
2018-07-20T00:08:50.938Z,6.83
2018-07-20T00:11:18.558Z,7.33
2018-07-20T00:13:46.181Z,7.67
2018-07-20T00:16:13.843Z,6.47
2018-07-20T00:18:41.919Z,6.53
2018-07-20T00:21:09.606Z,7.90
2018-07-20T00:23:37.207Z,6.80
2018-07-20T00:26:05.371Z,7.53
2018-07-20T00:28:33.066Z,6.73
2018-07-20T00:31:00.701Z,7.47
2018-07-20T00:33:28.323Z,7.97
2018-07-20T00:35:55.919Z,7.43
2018-07-20T00:38:23.552Z,6.87
2018-07-20T00:40:51.123Z,7.60
2018-07-20T00:43:18.687Z,7.20
2018-07-20T00:45:46.326Z,7.50
2018-07-20T00:48:13.907Z,8.00
2018-07-20T00:50:41.532Z,7.87
2018-07-20T00:53:09.114Z,7.10
2018-07-20T00:55:36.679Z,7.87
2018-07-20T00:58:04.337Z,7.57
2018-07-20T01:00:31.909Z,7.33
2018-07-20T01:02:59.545Z,7.63
2018-07-20T01:05:27.175Z,7.40
2018-07-20T01:07:54.758Z,7.23
2018-07-20T01:10:28.202Z,8.10
2018-07-20T01:12:55.820Z,8.03
2018-07-20T01:15:23.412Z,8.20
2018-07-20T01:17:50.968Z,7.43
2018-07-20T01:20:18.615Z,8.20
2018-07-20T01:22:46.216Z,7.70
2018-07-20T01:25:13.799Z,7.97
2018-07-20T01:27:41.388Z,7.50
2018-07-20T01:30:08.971Z,6.80
2018-07-20T01:32:36.527Z,7.43
2018-07-20T01:35:04.227Z,8.63
2018-07-20T01:37:31.809Z,7.57
2018-07-20T01:39:59.359Z,7.80
2018-07-20T01:42:26.958Z,7.63
2018-07-20T01:44:54.566Z,7.97
2018-07-20T01:47:22.149Z,7.77
2018-07-20T01:49:50.131Z,7.37
2018-07-20T01:52:17.719Z,7.67
2018-07-20T01:54:45.314Z,6.60
2018-07-20T01:57:12.961Z,7.80
2018-07-20T01:59:40.502Z,6.50
2018-07-20T02:02:21.728Z,8.27
2018-07-20T02:04:49.310Z,7.20
2018-07-20T02:07:16.960Z,7.67
2018-07-20T02:09:46.389Z,7.60
2018-07-20T02:12:19.867Z,7.50
2018-07-20T02:14:47.433Z,8.20
2018-07-20T02:17:15.032Z,7.43
2018-07-20T02:19:42.638Z,7.60
2018-07-20T02:22:10.191Z,8.23
2018-07-20T02:24:37.759Z,8.40
2018-07-20T02:27:05.355Z,8.57
2018-07-20T02:29:32.994Z,8.20
2018-07-20T02:37:53.441Z,7.20
2018-07-20T02:40:21.064Z,8.33
2018-07-20T02:42:48.703Z,7.90
2018-07-20T02:45:16.269Z,8.87
2018-07-20T02:47:43.877Z,7.70
2018-07-20T02:50:11.482Z,7.63
2018-07-20T02:52:39.075Z,8.20
2018-07-20T02:55:06.732Z,7.33
2018-07-20T02:57:34.275Z,7.90
2018-07-20T03:00:01.910Z,8.80
2018-07-20T03:02:29.471Z,8.13
2018-07-20T03:04:57.074Z,8.27
2018-07-20T03:07:24.660Z,7.30
2018-07-20T03:09:52.224Z,8.10
2018-07-20T03:12:19.797Z,8.47
2018-07-20T03:14:47.408Z,8.97
2018-07-20T03:17:15.012Z,9.00
2018-07-20T03:19:42.587Z,8.80
2018-07-20T03:22:10.184Z,8.40
2018-07-20T03:24:37.794Z,9.00
2018-07-20T03:27:05.371Z,8.70
2018-07-20T03:29:32.988Z,8.67
2018-07-20T03:32:00.572Z,8.50
2018-07-20T03:34:28.138Z,8.40
2018-07-20T03:36:55.716Z,9.40
2018-07-20T03:39:23.299Z,8.57
2018-07-20T03:41:50.905Z,7.13
2018-07-20T03:44:18.487Z,8.90
2018-07-20T03:46:46.114Z,7.90
2018-07-20T03:49:13.655Z,9.13
2018-07-20T03:51:41.228Z,8.40
2018-07-20T03:54:08.851Z,8.47
2018-07-20T03:56:36.459Z,9.10
2018-07-20T03:59:04.032Z,8.37
2018-07-20T04:01:31.677Z,8.53
2018-07-20T04:03:59.266Z,8.80
2018-07-20T04:06:26.878Z,8.00
2018-07-20T04:08:54.471Z,8.67
2018-07-20T04:11:22.044Z,8.70
2018-07-20T04:13:53.143Z,8.50
2018-07-20T04:16:20.769Z,8.40
2018-07-20T04:20:57.422Z,8.20
2018-07-20T04:23:25.067Z,8.10
2018-07-20T04:25:52.687Z,8.87
2018-07-20T04:28:20.255Z,8.00
2018-07-20T04:30:47.867Z,8.87
2018-07-20T04:33:15.465Z,8.60
2018-07-20T04:35:43.033Z,8.47
2018-07-20T04:38:10.726Z,8.40
2018-07-20T04:40:38.331Z,8.63
2018-07-20T04:43:06.021Z,8.77
2018-07-20T04:45:33.625Z,9.30
2018-07-20T04:48:01.439Z,8.03
2018-07-20T04:50:29.059Z,8.37
2018-07-20T04:52:57.752Z,9.30
2018-07-20T04:55:25.347Z,8.80
2018-07-20T04:57:53.027Z,9.70
2018-07-20T05:00:20.598Z,9.23
2018-07-20T05:02:48.265Z,8.60
2018-07-20T05:05:15.914Z,8.90
2018-07-20T05:07:43.510Z,8.60
2018-07-20T05:10:11.112Z,9.20
2018-07-20T05:12:38.776Z,9.80
2018-07-20T05:15:06.445Z,10.10
2018-07-20T05:17:34.428Z,9.47
2018-07-20T05:20:02.066Z,10.20
2018-07-20T05:22:29.678Z,11.27
2018-07-20T05:24:57.362Z,9.67
2018-07-20T05:27:24.988Z,10.00
2018-07-20T05:29:52.587Z,9.47
2018-07-20T05:32:20.157Z,11.40
2018-07-20T05:34:47.724Z,9.93
2018-07-20T05:37:15.908Z,9.90
2018-07-20T05:39:43.499Z,10.37
2018-07-20T05:42:11.117Z,9.70
2018-07-20T05:44:38.691Z,9.27
2018-07-20T05:47:06.312Z,8.53
2018-07-20T05:49:33.850Z,8.73
2018-07-20T05:52:01.478Z,9.57
2018-07-20T05:54:29.110Z,9.20
2018-07-20T05:56:56.678Z,9.27
2018-07-20T05:59:24.232Z,10.20
2018-07-20T06:02:48.074Z,11.07
2018-07-20T06:05:15.731Z,10.20
2018-07-20T06:07:43.355Z,10.60
2018-07-20T06:10:10.987Z,9.50
2018-07-20T06:12:38.641Z,10.00
2018-07-20T06:15:06.379Z,8.60
2018-07-20T06:17:34.065Z,8.47
2018-07-20T06:20:01.776Z,9.00
2018-07-20T06:22:29.744Z,8.00
2018-07-20T06:24:57.465Z,7.60
2018-07-20T06:27:25.155Z,7.20
2018-07-20T06:29:52.790Z,6.90
2018-07-20T06:32:20.399Z,5.93
2018-07-20T06:34:48.032Z,6.07
2018-07-20T06:37:15.639Z,7.00
2018-07-20T06:39:43.297Z,6.10
2018-07-20T06:42:10.928Z,6.30
2018-07-20T06:44:38.588Z,5.40
2018-07-20T06:47:06.577Z,6.20
2018-07-20T06:49:35.713Z,6.67
2018-07-20T06:52:03.376Z,6.83
2018-07-20T06:54:31.030Z,5.83
2018-07-20T06:56:59.192Z,6.17
2018-07-20T06:59:26.809Z,6.60
2018-07-20T07:01:54.458Z,7.00
2018-07-20T07:04:22.098Z,6.63
2018-07-20T07:06:49.760Z,7.13
2018-07-20T07:09:17.420Z,7.47
2018-07-20T07:11:45.739Z,7.50
2018-07-20T07:14:13.273Z,6.03
2018-07-20T07:16:41.007Z,7.50
2018-07-20T07:19:08.609Z,6.90
2018-07-20T07:21:36.305Z,7.60
2018-07-20T07:24:03.962Z,7.77
2018-07-20T07:26:31.611Z,8.80
2018-07-20T07:28:59.245Z,9.70
2018-07-20T07:31:26.881Z,11.70
2018-07-20T07:33:54.579Z,12.17
2018-07-20T07:36:22.267Z,10.37
2018-07-20T07:38:49.971Z,11.83
2018-07-20T07:41:17.561Z,10.50
2018-07-20T07:43:45.189Z,8.70
2018-07-20T07:46:12.769Z,8.30
2018-07-20T07:48:40.524Z,7.87
2018-07-20T07:51:08.194Z,8.40
2018-07-20T07:53:35.790Z,7.60
2018-07-20T07:56:03.491Z,7.57
2018-07-20T07:58:31.134Z,7.07
2018-07-20T08:00:58.754Z,7.57
2018-07-20T08:03:26.434Z,7.07
2018-07-20T08:05:54.036Z,6.83
2018-07-20T08:08:21.644Z,6.67
2018-07-20T08:10:49.363Z,6.70
2018-07-20T08:13:17.031Z,7.40
2018-07-20T08:15:44.589Z,7.37
2018-07-20T08:18:12.200Z,6.43
2018-07-20T08:20:39.839Z,7.27
2018-07-20T08:23:07.469Z,6.77
2018-07-20T08:25:35.133Z,6.73
2018-07-20T08:28:02.831Z,6.67
2018-07-20T08:30:30.634Z,7.10
2018-07-20T08:32:58.255Z,7.20
2018-07-20T08:35:25.928Z,7.30
2018-07-20T08:37:53.570Z,6.40
2018-07-20T08:40:21.199Z,7.50
2018-07-20T08:42:48.828Z,7.03
2018-07-20T08:45:16.437Z,8.27
2018-07-20T08:47:44.037Z,6.80
2018-07-20T08:50:11.661Z,7.13
2018-07-20T08:52:39.278Z,6.80
2018-07-20T08:55:06.916Z,6.40
2018-07-20T08:57:34.629Z,6.83
2018-07-20T09:00:02.859Z,6.77
2018-07-20T09:02:30.393Z,7.70
2018-07-20T09:07:32.483Z,6.63
2018-07-20T09:10:00.085Z,6.67
2018-07-20T09:12:27.688Z,7.00
2018-07-20T09:14:55.330Z,6.20
2018-07-20T09:17:22.912Z,8.33
2018-07-20T09:19:50.511Z,6.70
2018-07-20T09:22:18.145Z,6.87
2018-07-20T09:24:45.797Z,6.40
2018-07-20T09:27:13.441Z,6.70
2018-07-20T09:29:41.044Z,6.23
2018-07-20T09:32:08.659Z,7.20
2018-07-20T09:34:36.247Z,6.60
2018-07-20T09:37:03.843Z,7.40
2018-07-20T09:39:31.508Z,6.90
2018-07-20T09:41:59.212Z,6.33
2018-07-20T09:44:26.886Z,6.90
2018-07-20T09:46:54.598Z,7.77
2018-07-20T09:49:22.218Z,6.43
2018-07-20T09:51:49.839Z,6.70
2018-07-20T09:54:17.485Z,6.93
2018-07-20T09:56:45.081Z,7.10
2018-07-20T09:59:12.893Z,6.33
2018-07-20T10:01:40.568Z,7.10
2018-07-20T10:04:08.262Z,6.47
2018-07-20T10:06:35.979Z,6.50
2018-07-20T10:09:06.454Z,7.10
2018-07-20T10:11:34.067Z,7.17
2018-07-20T10:14:01.702Z,6.90
2018-07-20T10:16:29.331Z,6.80
2018-07-20T10:18:57.038Z,6.30
2018-07-20T10:21:24.719Z,6.60
2018-07-20T10:23:52.337Z,6.63
2018-07-20T10:26:19.976Z,7.10
2018-07-20T10:28:47.631Z,7.50
2018-07-20T10:31:15.277Z,6.13
2018-07-20T10:33:43.675Z,7.00
2018-07-20T10:36:11.332Z,6.80
2018-07-20T10:38:38.955Z,6.40
2018-07-20T10:43:03.921Z,6.60
2018-07-20T10:45:31.574Z,6.93
2018-07-20T10:47:59.236Z,6.83
2018-07-20T10:50:26.885Z,7.13
2018-07-20T10:52:54.521Z,6.53
2018-07-20T10:55:22.178Z,8.00
2018-07-20T10:57:49.784Z,6.50
2018-07-20T11:00:17.444Z,7.80
2018-07-20T11:02:45.156Z,6.00
2018-07-20T11:05:12.851Z,7.57
2018-07-20T11:07:40.508Z,6.67
2018-07-20T11:10:08.148Z,7.10
2018-07-20T11:12:35.832Z,6.50
2018-07-20T11:15:04.173Z,6.43
2018-07-20T11:17:31.772Z,5.80
2018-07-20T11:19:59.411Z,6.40
2018-07-20T11:22:27.050Z,6.40
2018-07-20T11:24:54.733Z,5.77
2018-07-20T11:27:22.326Z,5.83
2018-07-20T11:29:50.815Z,5.43
2018-07-20T11:32:18.469Z,6.13
2018-07-20T11:34:46.179Z,5.67
2018-07-20T11:37:13.765Z,6.67
2018-07-20T11:39:41.399Z,5.57
2018-07-20T11:42:09.059Z,5.87
2018-07-20T11:44:36.736Z,6.03
2018-07-20T11:47:04.402Z,6.37
2018-07-20T11:49:32.060Z,7.10
2018-07-20T11:51:59.689Z,6.07
2018-07-20T11:54:27.349Z,5.67
2018-07-20T11:56:55.067Z,6.80
2018-07-20T11:59:22.962Z,6.70
2018-07-20T12:01:50.624Z,7.50
2018-07-20T12:04:18.344Z,8.80
2018-07-20T12:06:46.055Z,8.90
2018-07-20T12:09:14.315Z,8.50
2018-07-20T12:11:42.158Z,9.13
2018-07-20T12:14:09.797Z,8.80
2018-07-20T12:16:37.715Z,8.80
2018-07-20T12:19:05.429Z,9.17
2018-07-20T12:21:33.055Z,10.30
2018-07-20T12:24:00.739Z,10.00
2018-07-20T12:26:28.386Z,8.80
2018-07-20T12:28:56.049Z,10.30
2018-07-20T12:31:23.757Z,11.60
2018-07-20T12:33:51.421Z,10.43
2018-07-20T12:36:19.057Z,11.40
2018-07-20T12:38:46.673Z,11.53
2018-07-20T12:41:14.335Z,10.50
2018-07-20T12:43:41.998Z,11.47
2018-07-20T12:46:09.700Z,11.70
2018-07-20T12:48:37.272Z,11.27
2018-07-20T12:51:05.271Z,9.37
2018-07-20T12:53:32.988Z,9.10
2018-07-20T12:56:00.653Z,6.60
2018-07-20T12:58:28.364Z,7.10
2018-07-20T13:00:56.017Z,7.90
2018-07-20T13:03:23.665Z,6.23
2018-07-20T13:05:53.418Z,6.10
2018-07-20T13:08:21.120Z,6.50
2018-07-20T13:10:48.772Z,6.27
2018-07-20T13:13:16.425Z,6.10
2018-07-20T13:15:44.115Z,6.30
2018-07-20T13:18:11.824Z,6.77
2018-07-20T13:20:39.489Z,6.03
2018-07-20T13:23:07.735Z,6.93
2018-07-20T13:25:35.419Z,6.03
2018-07-20T13:28:03.139Z,6.23
2018-07-20T13:30:30.822Z,6.17
2018-07-20T13:32:59.152Z,6.07
2018-07-20T13:35:26.804Z,6.77
2018-07-20T13:37:54.473Z,6.20
2018-07-20T13:40:22.133Z,6.70
2018-07-20T13:42:49.798Z,7.00
2018-07-20T13:45:17.473Z,6.57
2018-07-20T13:47:45.143Z,7.20
2018-07-20T13:50:12.766Z,7.10
2018-07-20T13:52:40.448Z,8.00
2018-07-20T13:55:08.100Z,6.30
2018-07-20T13:57:35.706Z,6.80
2018-07-20T14:00:04.849Z,7.73
2018-07-20T14:02:32.537Z,6.50
2018-07-20T14:05:06.500Z,7.87
2018-07-20T14:10:34.802Z,7.23
2018-07-20T14:13:02.434Z,6.80
2018-07-20T14:15:30.073Z,5.60
2018-07-20T14:17:57.852Z,5.60
2018-07-20T14:20:25.814Z,6.70
2018-07-20T14:22:53.500Z,5.80
2018-07-20T14:25:21.101Z,6.00
2018-07-20T14:27:48.704Z,5.97
2018-07-20T14:30:16.372Z,5.40
2018-07-20T14:32:44.074Z,5.57
2018-07-20T14:35:11.703Z,5.70
2018-07-20T14:37:39.321Z,5.17
2018-07-20T14:40:07.538Z,4.90
2018-07-20T14:42:35.372Z,6.50
2018-07-20T14:45:03.015Z,6.00
2018-07-20T14:47:30.668Z,5.77
2018-07-20T14:49:58.349Z,5.90
2018-07-20T14:52:26.026Z,5.87
2018-07-20T14:54:53.733Z,5.97
2018-07-20T14:57:21.499Z,6.00
2018-07-20T14:59:49.246Z,5.80
2018-07-20T15:02:16.781Z,5.57
2018-07-20T15:04:44.494Z,6.10
2018-07-20T15:07:12.063Z,5.87
2018-07-20T15:09:39.722Z,5.80
2018-07-20T15:12:07.398Z,6.03
2018-07-20T15:14:35.154Z,5.10
2018-07-20T15:17:02.823Z,6.47
2018-07-20T15:19:30.520Z,6.20
2018-07-20T15:21:58.087Z,5.50
2018-07-20T15:24:25.658Z,5.57
2018-07-20T15:26:53.356Z,6.33
2018-07-20T15:29:21.016Z,6.60
2018-07-20T15:31:48.687Z,6.20
2018-07-20T15:34:16.345Z,5.97
2018-07-20T15:36:43.991Z,6.43
2018-07-20T15:39:11.715Z,7.13
2018-07-20T15:41:39.751Z,6.60
2018-07-20T15:44:07.443Z,6.90
2018-07-20T15:46:35.143Z,6.40
2018-07-20T15:49:02.703Z,5.80
2018-07-20T15:52:57.105Z,6.00
2018-07-20T15:53:58.078Z,6.30
2018-07-20T15:56:26.317Z,6.07
2018-07-20T15:58:54.795Z,6.30
2018-07-20T16:01:23.004Z,6.20
2018-07-20T16:03:51.947Z,5.93
2018-07-20T16:06:24.079Z,5.80
2018-07-20T16:08:57.147Z,6.50
2018-07-20T16:11:24.808Z,6.63
2018-07-20T16:13:52.438Z,6.80
2018-07-20T16:16:20.125Z,6.00
2018-07-20T16:18:47.837Z,7.00
2018-07-20T16:21:15.491Z,6.90
2018-07-20T16:23:43.110Z,6.20
2018-07-20T16:26:11.133Z,6.93
2018-07-20T16:28:38.811Z,6.53
2018-07-20T16:31:06.514Z,6.90
2018-07-20T16:33:35.009Z,7.27
2018-07-20T16:36:02.647Z,6.07
2018-07-20T16:38:30.303Z,7.00
2018-07-20T16:40:57.883Z,7.27
2018-07-20T16:43:26.077Z,5.90
2018-07-20T16:45:53.637Z,6.23
2018-07-20T16:48:21.302Z,6.33
2018-07-20T16:50:48.934Z,6.50
2018-07-20T16:53:16.521Z,6.70
2018-07-20T16:55:44.210Z,6.93
2018-07-20T16:58:11.979Z,6.57
2018-07-20T17:00:39.623Z,6.80
2018-07-20T17:03:07.324Z,7.00
2018-07-20T17:05:34.950Z,6.40
2018-07-20T17:08:03.468Z,7.33
2018-07-20T17:10:31.121Z,7.27
2018-07-20T17:12:58.767Z,7.00
2018-07-20T17:15:26.377Z,6.77
2018-07-20T17:17:53.986Z,6.63
2018-07-20T17:20:22.214Z,6.93
2018-07-20T17:22:49.810Z,6.03
2018-07-20T17:25:17.442Z,8.77
2018-07-20T17:27:45.102Z,8.10
2018-07-20T17:30:13.642Z,7.73
2018-07-20T17:32:41.302Z,6.67
2018-07-20T17:35:08.944Z,7.50
2018-07-20T17:37:37.109Z,8.00
2018-07-20T17:40:04.887Z,7.30
2018-07-20T17:42:33.801Z,6.63
2018-07-20T17:45:01.853Z,6.63
2018-07-20T17:47:30.239Z,7.37
2018-07-20T17:49:57.843Z,7.10
2018-07-20T17:52:25.952Z,7.20
2018-07-20T17:54:53.635Z,7.60
2018-07-20T17:57:21.330Z,6.10
2018-07-20T17:59:48.927Z,5.97
2018-07-20T18:02:16.604Z,5.57
2018-07-20T18:04:44.804Z,5.03
2018-07-20T18:07:12.436Z,5.30
2018-07-20T18:09:40.099Z,5.40
2018-07-20T18:12:08.575Z,5.47
2018-07-20T18:14:36.272Z,5.90
2018-07-20T18:17:03.885Z,4.60
2018-07-20T18:19:31.514Z,5.60
2018-07-20T18:21:59.180Z,4.90
2018-07-20T18:24:26.936Z,5.77
2018-07-20T18:26:54.652Z,5.93
2018-07-20T18:29:22.252Z,5.53
2018-07-20T18:31:50.539Z,4.90
2018-07-20T18:34:18.177Z,4.97
2018-07-20T18:36:45.835Z,5.07
2018-07-20T18:39:13.490Z,5.03
2018-07-20T18:41:41.324Z,5.60
2018-07-20T18:44:09.357Z,5.47
2018-07-20T18:46:37.230Z,5.53
2018-07-20T18:49:05.076Z,4.40
2018-07-20T18:51:32.819Z,5.10
2018-07-20T18:54:01.245Z,4.83
2018-07-20T18:56:28.928Z,4.50
2018-07-20T18:58:56.597Z,5.30
2018-07-20T19:01:24.280Z,4.70
2018-07-20T19:03:51.910Z,5.00
2018-07-20T19:06:19.610Z,5.00
2018-07-20T19:08:47.247Z,4.97
2018-07-20T19:11:14.916Z,5.50
2018-07-20T19:13:42.653Z,5.80
2018-07-20T19:16:10.339Z,5.13
2018-07-20T19:18:38.008Z,5.80
2018-07-20T19:21:05.425Z,5.43
2018-07-20T19:23:33.108Z,5.27
2018-07-20T19:26:01.023Z,5.60
2018-07-20T19:28:28.651Z,5.27
2018-07-20T19:30:56.597Z,6.10
2018-07-20T19:33:24.231Z,4.97
2018-07-20T19:35:51.861Z,6.00
2018-07-20T19:38:19.498Z,5.93
2018-07-20T19:40:47.097Z,5.53
2018-07-20T19:43:14.755Z,6.23
2018-07-20T19:45:42.368Z,7.00
2018-07-20T19:48:10.320Z,6.77
2018-07-20T19:50:37.964Z,6.00
2018-07-20T19:53:05.584Z,7.03
2018-07-20T19:55:33.259Z,7.53
2018-07-20T19:58:00.932Z,8.20
2018-07-20T20:00:28.568Z,6.90
2018-07-20T20:02:56.994Z,6.67
2018-07-20T20:05:24.660Z,7.90
2018-07-20T20:07:52.357Z,6.97
2018-07-20T20:10:26.896Z,6.60
2018-07-20T20:12:54.518Z,5.93
2018-07-20T20:15:22.208Z,5.27
2018-07-20T20:17:49.871Z,5.50
2018-07-20T20:20:17.623Z,5.03
2018-07-20T20:22:45.490Z,5.63
2018-07-20T20:25:13.412Z,5.40
2018-07-20T20:27:41.295Z,5.63
2018-07-20T20:30:09.000Z,4.47
2018-07-20T20:32:36.746Z,4.73
2018-07-20T20:35:04.429Z,5.17
2018-07-20T20:37:32.173Z,5.33
2018-07-20T20:39:59.911Z,5.57
2018-07-20T20:42:27.580Z,5.60
2018-07-20T20:44:55.239Z,5.40
2018-07-20T20:47:22.864Z,5.27
2018-07-20T20:49:50.517Z,5.00
2018-07-20T20:52:18.537Z,5.30
2018-07-20T20:54:46.147Z,5.03
2018-07-20T20:57:13.797Z,5.20
2018-07-20T20:59:41.521Z,5.43
2018-07-20T21:02:09.175Z,6.33
2018-07-20T21:04:36.771Z,5.60
2018-07-20T21:07:04.588Z,6.47
2018-07-20T21:09:32.245Z,6.00
2018-07-20T21:12:00.003Z,6.17
2018-07-20T21:14:27.594Z,6.03
2018-07-20T21:16:55.294Z,6.53
2018-07-20T21:19:22.858Z,6.70
2018-07-20T21:21:50.587Z,6.97
2018-07-20T21:24:18.305Z,8.27
2018-07-20T21:26:46.017Z,7.70
2018-07-20T21:29:13.684Z,7.60
2018-07-20T21:31:41.502Z,7.73
2018-07-20T21:34:09.144Z,9.70
2018-07-20T21:36:36.733Z,9.27
2018-07-20T21:39:07.499Z,8.67
2018-07-20T21:41:35.198Z,8.33
2018-07-20T21:44:03.432Z,8.60
2018-07-20T21:46:30.984Z,7.60
2018-07-20T21:48:58.578Z,7.73
2018-07-20T21:51:26.236Z,7.63
2018-07-20T21:53:53.812Z,7.60
2018-07-20T21:56:21.446Z,7.70
2018-07-20T21:58:49.121Z,7.43
2018-07-20T22:01:16.794Z,7.30
2018-07-20T22:03:44.442Z,7.40
2018-07-20T22:06:12.047Z,7.50
2018-07-20T22:08:39.594Z,8.20
2018-07-20T22:11:07.308Z,7.87
2018-07-20T22:13:34.928Z,7.50
2018-07-20T22:16:02.552Z,7.30
2018-07-20T22:18:30.147Z,7.97
2018-07-20T22:20:57.796Z,8.23
2018-07-20T22:23:25.475Z,8.07
2018-07-20T22:25:53.124Z,8.63
2018-07-20T22:28:20.791Z,8.17
2018-07-20T22:30:48.389Z,8.40
2018-07-20T22:33:16.019Z,9.00
2018-07-20T22:35:44.446Z,9.30
2018-07-20T22:38:12.097Z,9.63
2018-07-20T22:40:39.655Z,9.30
2018-07-20T22:43:07.317Z,9.60
2018-07-20T22:45:34.951Z,8.77
2018-07-20T22:48:02.619Z,8.87
2018-07-20T22:50:30.357Z,8.90
2018-07-20T22:52:57.967Z,8.77
2018-07-20T22:55:26.181Z,8.87
2018-07-20T22:57:53.752Z,8.77
2018-07-20T23:00:21.401Z,9.47
2018-07-20T23:02:49.085Z,9.00
2018-07-20T23:05:16.598Z,8.47
2018-07-20T23:07:44.213Z,8.73
2018-07-20T23:10:11.869Z,8.90
2018-07-20T23:12:39.432Z,8.60
2018-07-20T23:15:07.149Z,9.40
2018-07-20T23:17:34.721Z,9.23
2018-07-20T23:20:02.366Z,9.40
2018-07-20T23:22:29.964Z,9.40
2018-07-20T23:24:58.229Z,10.00
2018-07-20T23:27:25.823Z,8.03
2018-07-20T23:29:54.371Z,8.60
2018-07-20T23:32:22.010Z,8.40
2018-07-20T23:34:49.617Z,9.50
2018-07-20T23:37:17.179Z,8.70
2018-07-20T23:39:44.824Z,9.77
2018-07-20T23:42:12.412Z,8.80
2018-07-20T23:44:39.975Z,9.63
2018-07-20T23:47:07.594Z,8.43
2018-07-20T23:49:36.167Z,9.10
2018-07-20T23:52:03.739Z,8.70
2018-07-20T23:54:31.370Z,10.53
2018-07-20T23:56:59.036Z,9.27
2018-07-20T23:59:26.609Z,9.90
